createdAt,value
2018-12-09T00:00:51.566Z,23.00
2018-12-09T00:03:19.233Z,23.10
2018-12-09T00:05:46.699Z,23.20
2018-12-09T00:08:14.329Z,23.20
2018-12-09T00:10:41.782Z,23.20
2018-12-09T00:13:09.381Z,23.20
2018-12-09T00:15:36.808Z,23.30
2018-12-09T00:18:04.296Z,23.30
2018-12-09T00:20:31.815Z,23.30
2018-12-09T00:22:59.541Z,23.30
2018-12-09T00:25:27.289Z,23.30
2018-12-09T00:27:55.054Z,23.30
2018-12-09T00:30:22.697Z,23.30
2018-12-09T00:32:50.272Z,23.30
2018-12-09T00:35:17.797Z,23.30
2018-12-09T00:37:45.369Z,23.20
2018-12-09T00:40:12.822Z,23.20
2018-12-09T00:42:43.575Z,23.20
2018-12-09T00:45:10.019Z,23.20
2018-12-09T00:47:37.807Z,23.20
2018-12-09T00:50:05.277Z,23.20
2018-12-09T00:52:32.929Z,23.20
2018-12-09T00:55:00.400Z,23.20
2018-12-09T00:57:27.854Z,23.20
2018-12-09T00:59:55.331Z,23.20
2018-12-09T01:02:22.854Z,23.20
2018-12-09T01:04:50.650Z,23.20
2018-12-09T01:07:18.284Z,23.20
2018-12-09T01:09:45.753Z,23.20
2018-12-09T01:12:13.208Z,23.20
2018-12-09T01:14:40.669Z,23.20
2018-12-09T01:17:08.115Z,23.20
2018-12-09T01:19:35.584Z,23.20
2018-12-09T01:22:03.043Z,23.20
2018-12-09T01:24:30.521Z,23.20
2018-12-09T01:26:58.038Z,23.20
2018-12-09T01:29:25.664Z,23.20
2018-12-09T01:31:53.256Z,23.20
2018-12-09T01:34:20.717Z,23.20
2018-12-09T01:36:48.380Z,23.20
2018-12-09T01:39:15.932Z,23.10
2018-12-09T01:41:43.573Z,23.10
2018-12-09T01:44:11.184Z,23.10
2018-12-09T01:46:38.932Z,23.10
2018-12-09T01:49:06.563Z,23.10
2018-12-09T01:51:34.134Z,23.10
2018-12-09T01:54:09.095Z,23.10
2018-12-09T01:56:37.414Z,23.10
2018-12-09T01:59:05.128Z,23.10
2018-12-09T02:01:32.893Z,23.10
2018-12-09T02:04:00.821Z,23.10
2018-12-09T02:06:28.339Z,23.10
2018-12-09T02:08:55.882Z,23.10
2018-12-09T02:11:23.360Z,23.10
2018-12-09T02:13:50.973Z,23.10
2018-12-09T02:16:18.624Z,23.10
2018-12-09T02:18:47.425Z,23.10
2018-12-09T02:21:15.013Z,23.10
2018-12-09T02:23:42.635Z,23.10
2018-12-09T02:26:10.256Z,23.10
2018-12-09T02:28:38.017Z,23.00
2018-12-09T02:31:05.499Z,23.00
2018-12-09T02:33:33.121Z,23.10
2018-12-09T02:36:00.667Z,23.00
2018-12-09T02:38:28.113Z,23.00
2018-12-09T02:40:55.566Z,23.00
2018-12-09T02:43:23.069Z,23.00
2018-12-09T02:45:50.813Z,23.00
2018-12-09T02:48:18.607Z,23.00
2018-12-09T02:50:46.360Z,23.00
2018-12-09T02:53:14.592Z,23.00
2018-12-09T02:55:42.130Z,23.00
2018-12-09T02:58:09.722Z,23.00
2018-12-09T03:00:37.363Z,23.00
2018-12-09T03:03:04.867Z,23.00
2018-12-09T03:05:32.948Z,23.00
2018-12-09T03:08:00.732Z,23.00
2018-12-09T03:10:28.335Z,23.00
2018-12-09T03:12:55.877Z,23.00
2018-12-09T03:15:23.346Z,23.00
2018-12-09T03:17:50.911Z,23.00
2018-12-09T03:20:18.344Z,23.00
2018-12-09T03:22:45.808Z,23.00
2018-12-09T03:25:13.580Z,23.00
2018-12-09T03:27:41.318Z,23.00
2018-12-09T03:30:08.827Z,22.90
2018-12-09T03:32:36.441Z,22.90
2018-12-09T03:35:06.049Z,23.00
2018-12-09T03:37:33.620Z,23.00
2018-12-09T03:40:01.368Z,22.90
2018-12-09T03:42:28.836Z,22.90
2018-12-09T03:44:56.606Z,23.00
2018-12-09T03:47:24.232Z,22.90
2018-12-09T03:49:51.810Z,22.90
2018-12-09T03:52:19.440Z,22.90
2018-12-09T03:54:46.973Z,22.90
2018-12-09T03:57:14.455Z,22.90
2018-12-09T03:59:42.160Z,22.90
2018-12-09T04:02:09.902Z,22.90
2018-12-09T04:04:37.482Z,22.90
2018-12-09T04:07:05.029Z,22.90
2018-12-09T04:09:32.611Z,22.90
2018-12-09T04:12:00.058Z,22.90
2018-12-09T04:14:27.546Z,22.90
2018-12-09T04:16:55.027Z,22.90
2018-12-09T04:19:22.541Z,22.90
2018-12-09T04:21:50.300Z,22.90
2018-12-09T04:24:18.129Z,22.90
2018-12-09T04:26:45.590Z,22.90
2018-12-09T04:29:13.182Z,22.90
2018-12-09T04:31:40.801Z,22.90
2018-12-09T04:34:08.496Z,22.90
2018-12-09T04:36:35.959Z,22.90
2018-12-09T04:39:04.070Z,22.90
2018-12-09T04:41:31.716Z,22.90
2018-12-09T04:43:59.269Z,22.90
2018-12-09T04:46:26.906Z,22.90
2018-12-09T04:48:54.468Z,22.90
2018-12-09T04:51:22.161Z,22.90
2018-12-09T04:53:49.704Z,22.90
2018-12-09T04:56:17.166Z,22.90
2018-12-09T04:58:48.440Z,22.90
2018-12-09T05:01:16.102Z,22.90
2018-12-09T05:03:43.844Z,22.90
2018-12-09T05:06:11.525Z,22.80
2018-12-09T05:08:39.092Z,22.80
2018-12-09T05:11:06.658Z,22.80
2018-12-09T05:13:34.329Z,22.80
2018-12-09T05:16:01.786Z,22.80
2018-12-09T05:18:29.701Z,22.80
2018-12-09T05:20:57.455Z,22.80
2018-12-09T05:23:25.000Z,22.80
2018-12-09T05:25:52.429Z,22.80
2018-12-09T05:28:19.941Z,22.80
2018-12-09T05:30:47.397Z,22.80
2018-12-09T05:33:14.909Z,22.80
2018-12-09T05:35:42.578Z,22.80
2018-12-09T05:38:10.128Z,22.80
2018-12-09T05:40:37.905Z,22.80
2018-12-09T05:43:05.649Z,22.80
2018-12-09T05:45:33.416Z,22.80
2018-12-09T05:48:00.885Z,22.80
2018-12-09T05:50:28.621Z,22.80
2018-12-09T05:52:56.408Z,22.80
2018-12-09T05:55:23.898Z,22.80
2018-12-09T05:57:51.601Z,22.80
2018-12-09T06:00:19.373Z,22.80
2018-12-09T06:02:52.509Z,22.80
2018-12-09T06:05:20.129Z,22.80
2018-12-09T06:07:48.089Z,22.80
2018-12-09T06:10:15.563Z,22.80
2018-12-09T06:12:43.361Z,22.80
2018-12-09T06:15:10.879Z,22.80
2018-12-09T06:17:38.546Z,22.80
2018-12-09T06:20:06.580Z,22.80
2018-12-09T06:22:34.116Z,22.80
2018-12-09T06:25:01.567Z,22.80
2018-12-09T06:27:29.108Z,22.80
2018-12-09T06:29:56.778Z,22.80
2018-12-09T06:32:24.219Z,22.80
2018-12-09T06:34:51.777Z,22.80
2018-12-09T06:37:19.538Z,22.70
2018-12-09T06:39:47.177Z,22.80
2018-12-09T06:42:14.656Z,22.70
2018-12-09T06:44:42.228Z,22.80
2018-12-09T06:47:09.673Z,22.80
2018-12-09T06:49:37.474Z,22.70
2018-12-09T06:52:05.214Z,22.70
2018-12-09T06:54:32.857Z,22.70
2018-12-09T06:57:00.441Z,22.70
2018-12-09T06:59:28.380Z,22.70
2018-12-09T07:01:55.900Z,22.70
2018-12-09T07:04:23.470Z,22.70
2018-12-09T07:06:51.185Z,22.70
2018-12-09T07:09:18.841Z,22.70
2018-12-09T07:11:46.578Z,22.70
2018-12-09T07:14:14.477Z,22.70
2018-12-09T07:16:41.956Z,22.70
2018-12-09T07:19:09.396Z,22.70
2018-12-09T07:21:37.177Z,22.70
2018-12-09T07:24:04.842Z,22.70
2018-12-09T07:26:32.296Z,22.70
2018-12-09T07:29:00.165Z,22.70
2018-12-09T07:31:27.916Z,22.70
2018-12-09T07:33:55.567Z,22.70
2018-12-09T07:36:23.045Z,22.70
2018-12-09T07:38:50.909Z,22.70
2018-12-09T07:41:18.392Z,22.70
2018-12-09T07:43:46.137Z,22.70
2018-12-09T07:46:15.197Z,22.70
2018-12-09T07:48:43.066Z,22.70
2018-12-09T07:51:10.921Z,22.70
2018-12-09T07:53:38.384Z,22.70
2018-12-09T07:56:06.002Z,22.70
2018-12-09T07:58:33.497Z,22.70
2018-12-09T08:01:00.941Z,22.70
2018-12-09T08:03:28.409Z,22.70
2018-12-09T08:05:55.860Z,22.70
2018-12-09T08:08:23.317Z,22.70
2018-12-09T08:10:50.773Z,22.70
2018-12-09T08:13:18.231Z,22.70
2018-12-09T08:15:45.685Z,22.70
2018-12-09T08:18:13.146Z,22.70
2018-12-09T08:20:40.696Z,22.70
2018-12-09T08:23:08.152Z,22.70
2018-12-09T08:25:35.609Z,22.70
2018-12-09T08:28:03.068Z,22.70
2018-12-09T08:30:30.533Z,22.70
2018-12-09T08:32:57.980Z,22.70
2018-12-09T08:35:25.437Z,22.70
2018-12-09T08:37:52.893Z,22.70
2018-12-09T08:40:20.344Z,22.70
2018-12-09T08:42:47.805Z,22.60
2018-12-09T08:45:15.257Z,22.50
2018-12-09T08:47:42.720Z,22.40
2018-12-09T08:50:10.276Z,22.30
2018-12-09T08:52:37.732Z,22.30
2018-12-09T08:55:05.293Z,22.30
2018-12-09T08:57:32.747Z,22.40
2018-12-09T09:00:00.208Z,22.50
2018-12-09T09:02:27.943Z,22.50
2018-12-09T09:04:55.389Z,22.60
2018-12-09T09:07:22.880Z,22.70
2018-12-09T09:09:50.332Z,22.70
2018-12-09T09:12:17.780Z,22.80
2018-12-09T09:14:45.246Z,22.90
2018-12-09T09:17:12.696Z,23.00
2018-12-09T09:19:40.153Z,23.10
2018-12-09T09:22:07.604Z,23.10
2018-12-09T09:24:35.124Z,23.20
2018-12-09T09:27:02.626Z,23.20
2018-12-09T09:29:30.093Z,23.20
2018-12-09T09:31:57.644Z,23.30
2018-12-09T09:34:25.096Z,23.30
2018-12-09T09:36:52.569Z,23.30
2018-12-09T09:39:20.112Z,23.30
2018-12-09T09:41:47.568Z,23.30
2018-12-09T09:44:15.005Z,23.30
2018-12-09T09:46:42.476Z,23.40
2018-12-09T09:49:09.932Z,23.40
2018-12-09T09:51:37.382Z,23.40
2018-12-09T09:54:04.821Z,23.40
2018-12-09T09:56:32.366Z,23.40
2018-12-09T09:59:00.105Z,23.40
2018-12-09T10:01:27.620Z,23.50
2018-12-09T10:03:57.233Z,23.50
2018-12-09T10:06:24.792Z,23.50
2018-12-09T10:08:52.250Z,23.50
2018-12-09T10:11:19.764Z,23.50
2018-12-09T10:13:47.261Z,23.50
2018-12-09T10:16:14.713Z,23.50
2018-12-09T10:18:42.171Z,23.50
2018-12-09T10:21:09.597Z,23.50
2018-12-09T10:23:37.361Z,23.50
2018-12-09T10:26:04.841Z,23.50
2018-12-09T10:28:32.304Z,23.50
2018-12-09T10:30:59.756Z,23.50
2018-12-09T10:33:27.205Z,23.50
2018-12-09T10:35:54.637Z,23.50
2018-12-09T10:38:22.085Z,23.50
2018-12-09T10:40:49.576Z,23.50
2018-12-09T10:43:17.100Z,23.50
2018-12-09T10:45:44.599Z,23.50
2018-12-09T10:48:12.048Z,23.50
2018-12-09T10:50:39.485Z,23.50
2018-12-09T10:53:06.966Z,23.50
2018-12-09T10:55:34.412Z,23.50
2018-12-09T10:58:01.865Z,23.50
2018-12-09T11:00:35.033Z,23.50
2018-12-09T11:03:02.525Z,23.50
2018-12-09T11:05:29.981Z,23.60
2018-12-09T11:07:57.536Z,23.60
2018-12-09T11:10:24.977Z,23.60
2018-12-09T11:12:52.444Z,23.60
2018-12-09T11:15:19.897Z,23.60
2018-12-09T11:17:47.740Z,23.70
2018-12-09T11:20:15.288Z,23.70
2018-12-09T11:22:43.027Z,23.70
2018-12-09T11:25:10.752Z,23.70
2018-12-09T11:27:38.213Z,23.70
2018-12-09T11:30:06.201Z,23.70
2018-12-09T11:32:37.602Z,23.70
2018-12-09T11:35:07.770Z,23.70
2018-12-09T11:37:37.236Z,23.70
2018-12-09T11:40:04.711Z,23.80
2018-12-09T11:42:32.160Z,23.70
2018-12-09T11:44:59.725Z,23.70
2018-12-09T11:47:27.237Z,23.70
2018-12-09T11:49:54.748Z,23.70
2018-12-09T11:52:22.292Z,23.70
2018-12-09T11:54:49.851Z,23.70
2018-12-09T11:57:17.304Z,23.70
2018-12-09T11:59:46.672Z,23.80
2018-12-09T12:02:20.049Z,23.80
2018-12-09T12:04:43.615Z,23.70
2018-12-09T12:07:11.125Z,23.70
2018-12-09T12:09:38.688Z,23.70
2018-12-09T12:12:06.255Z,23.70
2018-12-09T12:14:33.827Z,23.70
2018-12-09T12:17:01.277Z,23.70
2018-12-09T12:19:28.940Z,23.70
2018-12-09T12:21:56.381Z,23.70
2018-12-09T12:24:23.980Z,23.70
2018-12-09T12:26:51.494Z,23.70
2018-12-09T12:29:18.964Z,23.70
2018-12-09T12:31:47.594Z,23.70
2018-12-09T12:34:15.044Z,23.70
2018-12-09T12:36:42.545Z,23.70
2018-12-09T12:39:10.098Z,23.70
2018-12-09T12:41:37.541Z,23.70
2018-12-09T12:44:05.014Z,23.70
2018-12-09T12:46:32.588Z,23.70
2018-12-09T12:49:00.126Z,23.70
2018-12-09T12:51:27.699Z,23.80
2018-12-09T12:53:55.413Z,23.80
2018-12-09T12:56:22.900Z,23.80
2018-12-09T12:58:50.349Z,23.90
2018-12-09T13:01:17.817Z,23.90
2018-12-09T13:03:45.263Z,23.90
2018-12-09T13:06:14.228Z,23.90
2018-12-09T13:08:41.697Z,24.00
2018-12-09T13:11:09.164Z,24.00
2018-12-09T13:13:36.596Z,24.00
2018-12-09T13:16:04.060Z,24.00
2018-12-09T13:18:31.547Z,24.10
2018-12-09T13:20:58.984Z,24.10
2018-12-09T13:23:26.492Z,24.10
2018-12-09T13:25:54.012Z,24.10
2018-12-09T13:28:21.449Z,24.10
2018-12-09T13:30:48.912Z,24.10
2018-12-09T13:33:16.355Z,24.10
2018-12-09T13:35:43.942Z,24.10
2018-12-09T13:38:11.392Z,24.10
2018-12-09T13:40:38.853Z,24.10
2018-12-09T13:43:06.409Z,24.10
2018-12-09T13:45:33.869Z,24.10
2018-12-09T13:48:01.324Z,24.10
2018-12-09T13:50:28.968Z,24.10
2018-12-09T13:52:56.437Z,24.10
2018-12-09T13:55:23.877Z,24.20
2018-12-09T13:57:51.344Z,24.10
2018-12-09T14:00:18.801Z,24.10
2018-12-09T14:02:46.572Z,24.10
2018-12-09T14:05:14.121Z,24.10
2018-12-09T14:07:41.569Z,24.00
2018-12-09T14:10:09.009Z,24.00
2018-12-09T14:12:36.505Z,24.00
2018-12-09T14:15:04.660Z,24.00
2018-12-09T14:17:32.121Z,24.00
2018-12-09T14:19:59.572Z,24.00
2018-12-09T14:22:27.034Z,23.90
2018-12-09T14:24:54.489Z,24.00
2018-12-09T14:27:23.328Z,24.00
2018-12-09T14:29:50.937Z,24.00
2018-12-09T14:32:18.398Z,23.90
2018-12-09T14:34:45.852Z,23.90
2018-12-09T14:37:13.414Z,23.90
2018-12-09T14:39:40.860Z,23.90
2018-12-09T14:42:08.384Z,23.90
2018-12-09T14:44:35.872Z,23.90
2018-12-09T14:47:03.324Z,23.90
2018-12-09T14:49:30.793Z,23.90
2018-12-09T14:51:58.232Z,23.90
2018-12-09T14:54:25.708Z,23.90
2018-12-09T14:56:53.162Z,23.90
2018-12-09T14:59:20.608Z,23.90
2018-12-09T15:01:48.073Z,23.90
2018-12-09T15:04:15.537Z,23.90
2018-12-09T15:06:42.981Z,23.90
2018-12-09T15:09:10.430Z,23.90
2018-12-09T15:11:38.718Z,23.90
2018-12-09T15:14:06.270Z,23.90
2018-12-09T15:16:33.732Z,23.90
2018-12-09T15:19:01.365Z,23.90
2018-12-09T15:21:28.844Z,23.90
2018-12-09T15:23:56.302Z,23.90
2018-12-09T15:26:23.759Z,23.90
2018-12-09T15:28:51.208Z,23.90
2018-12-09T15:31:18.649Z,23.90
2018-12-09T15:33:46.120Z,23.90
2018-12-09T15:36:13.580Z,23.90
2018-12-09T15:38:41.034Z,23.90
2018-12-09T15:41:08.489Z,23.90
2018-12-09T15:43:35.945Z,23.90
2018-12-09T15:46:03.406Z,23.90
2018-12-09T15:48:30.857Z,23.90
2018-12-09T15:50:58.906Z,23.90
2018-12-09T15:53:26.339Z,23.90
2018-12-09T15:55:53.781Z,23.90
2018-12-09T15:58:21.297Z,23.90
2018-12-09T16:00:55.006Z,23.90
2018-12-09T16:03:22.666Z,23.90
2018-12-09T16:05:50.100Z,23.90
2018-12-09T16:08:17.545Z,23.90
2018-12-09T16:10:45.352Z,23.90
2018-12-09T16:13:12.996Z,23.90
2018-12-09T16:15:40.453Z,23.90
2018-12-09T16:18:07.905Z,23.90
2018-12-09T16:20:35.360Z,23.90
2018-12-09T16:23:02.821Z,23.90
2018-12-09T16:25:30.278Z,23.90
2018-12-09T16:27:57.716Z,23.90
2018-12-09T16:30:25.197Z,23.90
2018-12-09T16:32:52.744Z,23.80
2018-12-09T16:35:20.195Z,23.80
2018-12-09T16:37:47.653Z,23.80
2018-12-09T16:40:15.113Z,23.80
2018-12-09T16:42:42.573Z,23.80
2018-12-09T16:45:10.020Z,23.80
2018-12-09T16:47:37.465Z,23.80
2018-12-09T16:50:05.451Z,23.90
2018-12-09T16:52:32.900Z,23.90
2018-12-09T16:55:00.356Z,23.80
2018-12-09T16:57:27.793Z,23.80
2018-12-09T16:59:55.273Z,23.80
2018-12-09T17:02:22.728Z,23.80
2018-12-09T17:04:50.189Z,23.80
2018-12-09T17:07:17.707Z,23.80
2018-12-09T17:09:45.197Z,23.80
2018-12-09T17:12:12.632Z,23.80
2018-12-09T17:14:40.084Z,23.80
2018-12-09T17:17:07.570Z,23.80
2018-12-09T17:19:35.021Z,23.80
2018-12-09T17:22:02.481Z,23.80
2018-12-09T17:24:29.937Z,23.80
2018-12-09T17:26:57.397Z,23.80
2018-12-09T17:29:24.853Z,23.80
2018-12-09T17:31:52.305Z,23.80
2018-12-09T17:34:19.860Z,23.90
2018-12-09T17:36:47.322Z,23.90
2018-12-09T17:39:14.940Z,23.80
2018-12-09T17:41:42.365Z,23.80
2018-12-09T17:44:09.828Z,23.80
2018-12-09T17:46:37.265Z,23.80
2018-12-09T17:49:04.768Z,23.80
2018-12-09T17:51:32.260Z,23.80
2018-12-09T17:53:59.693Z,23.80
2018-12-09T17:56:27.164Z,23.80
2018-12-09T17:58:54.632Z,23.80
2018-12-09T18:01:22.356Z,23.80
2018-12-09T18:03:49.847Z,23.80
2018-12-09T18:06:17.301Z,23.80
2018-12-09T18:08:44.764Z,23.80
2018-12-09T18:11:12.209Z,23.80
2018-12-09T18:13:39.668Z,23.80
2018-12-09T18:16:07.124Z,23.80
2018-12-09T18:18:36.243Z,23.80
2018-12-09T18:21:03.881Z,23.80
2018-12-09T18:23:31.313Z,23.80
2018-12-09T18:25:58.760Z,23.80
2018-12-09T18:28:26.245Z,23.80
2018-12-09T18:30:53.704Z,23.80
2018-12-09T18:33:21.162Z,23.80
2018-12-09T18:35:48.609Z,23.80
2018-12-09T18:38:16.113Z,23.80
2018-12-09T18:40:43.549Z,23.80
2018-12-09T18:43:11.085Z,23.80
2018-12-09T18:45:38.545Z,23.80
2018-12-09T18:48:06.208Z,23.90
2018-12-09T18:50:33.766Z,23.90
2018-12-09T18:53:01.209Z,23.90
2018-12-09T18:55:28.650Z,23.90
2018-12-09T18:57:56.129Z,23.90
2018-12-09T19:00:23.588Z,23.90
2018-12-09T19:02:51.033Z,23.90
2018-12-09T19:05:18.501Z,23.90
2018-12-09T19:07:46.057Z,23.90
2018-12-09T19:10:13.505Z,23.90
2018-12-09T19:12:40.953Z,23.90
2018-12-09T19:15:08.431Z,23.90
2018-12-09T19:17:35.984Z,23.90
2018-12-09T19:20:03.574Z,23.90
2018-12-09T19:22:31.032Z,23.90
2018-12-09T19:24:58.477Z,23.90
2018-12-09T19:27:25.924Z,23.90
2018-12-09T19:29:53.364Z,23.90
2018-12-09T19:32:20.847Z,23.90
2018-12-09T19:34:48.380Z,23.90
2018-12-09T19:37:15.836Z,23.90
2018-12-09T19:39:43.292Z,23.90
2018-12-09T19:42:10.766Z,23.90
2018-12-09T19:44:38.207Z,23.90
2018-12-09T19:47:05.868Z,23.90
2018-12-09T19:49:33.420Z,23.90
2018-12-09T19:52:00.897Z,23.80
2018-12-09T19:54:28.353Z,23.90
2018-12-09T19:56:55.981Z,23.90
2018-12-09T19:59:23.457Z,23.80
2018-12-09T20:01:50.942Z,23.80
2018-12-09T20:04:18.465Z,23.80
2018-12-09T20:06:45.956Z,23.80
2018-12-09T20:09:13.412Z,23.80
2018-12-09T20:11:40.872Z,23.80
2018-12-09T20:14:08.388Z,23.80
2018-12-09T20:16:35.849Z,23.80
2018-12-09T20:19:03.393Z,23.90
2018-12-09T20:21:30.865Z,23.90
2018-12-09T20:23:58.413Z,23.90
2018-12-09T20:26:25.993Z,23.90
2018-12-09T20:28:53.437Z,23.90
2018-12-09T20:31:20.880Z,23.90
2018-12-09T20:33:48.325Z,23.90
2018-12-09T20:36:15.801Z,23.90
2018-12-09T20:38:43.274Z,23.90
2018-12-09T20:41:10.729Z,23.90
2018-12-09T20:43:39.261Z,23.90
2018-12-09T20:46:06.756Z,23.90
2018-12-09T20:48:34.193Z,23.90
2018-12-09T20:51:01.673Z,23.90
2018-12-09T20:53:29.123Z,23.90
2018-12-09T20:55:56.673Z,23.90
2018-12-09T20:58:24.108Z,23.90
2018-12-09T21:00:51.584Z,23.90
2018-12-09T21:03:19.044Z,23.90
2018-12-09T21:05:46.497Z,23.90
2018-12-09T21:08:13.960Z,23.90
2018-12-09T21:10:41.578Z,23.90
2018-12-09T21:13:09.086Z,23.90
2018-12-09T21:15:36.528Z,23.90
2018-12-09T21:18:03.964Z,23.90
2018-12-09T21:20:31.441Z,23.80
2018-12-09T21:22:58.896Z,23.80
2018-12-09T21:25:26.341Z,23.80
2018-12-09T21:27:53.809Z,23.80
2018-12-09T21:30:21.261Z,23.80
2018-12-09T21:32:48.721Z,23.80
2018-12-09T21:35:16.277Z,23.80
2018-12-09T21:37:43.742Z,23.80
2018-12-09T21:40:11.301Z,23.80
2018-12-09T21:42:38.741Z,23.70
2018-12-09T21:45:06.188Z,23.70
2018-12-09T21:47:33.665Z,23.70
2018-12-09T21:50:01.125Z,23.70
2018-12-09T21:52:28.564Z,23.70
2018-12-09T21:54:56.028Z,23.70
2018-12-09T21:57:23.476Z,23.60
2018-12-09T21:59:50.941Z,23.60
2018-12-09T22:02:18.402Z,23.60
2018-12-09T22:04:45.858Z,23.60
2018-12-09T22:07:13.293Z,23.60
2018-12-09T22:09:40.775Z,23.60
2018-12-09T22:12:08.216Z,23.60
2018-12-09T22:14:35.689Z,23.60
2018-12-09T22:17:03.236Z,23.60
2018-12-09T22:19:30.794Z,23.60
2018-12-09T22:21:58.245Z,23.50
2018-12-09T22:24:25.697Z,23.50
2018-12-09T22:26:53.165Z,23.50
2018-12-09T22:29:20.628Z,23.50
2018-12-09T22:31:48.173Z,23.50
2018-12-09T22:34:15.634Z,23.50
2018-12-09T22:36:43.184Z,23.50
2018-12-09T22:39:10.657Z,23.50
2018-12-09T22:41:38.097Z,23.50
2018-12-09T22:44:05.621Z,23.40
2018-12-09T22:46:33.121Z,23.40
2018-12-09T22:49:00.585Z,23.40
2018-12-09T22:51:28.124Z,23.40
2018-12-09T22:53:55.589Z,23.40
2018-12-09T22:56:23.041Z,23.40
2018-12-09T22:58:50.500Z,23.40
2018-12-09T23:01:18.250Z,23.40
2018-12-09T23:03:45.808Z,23.40
2018-12-09T23:06:13.251Z,23.40
2018-12-09T23:08:40.746Z,23.40
2018-12-09T23:11:08.284Z,23.40
2018-12-09T23:13:35.740Z,23.40
2018-12-09T23:16:03.264Z,23.40
2018-12-09T23:18:31.317Z,23.30
2018-12-09T23:20:59.152Z,23.30
2018-12-09T23:23:26.592Z,23.30
2018-12-09T23:25:54.053Z,23.30
2018-12-09T23:28:21.569Z,23.30
2018-12-09T23:30:49.064Z,23.30
2018-12-09T23:33:16.520Z,23.30
2018-12-09T23:35:44.048Z,23.30
2018-12-09T23:38:11.532Z,23.30
2018-12-09T23:40:38.984Z,23.30
2018-12-09T23:43:06.457Z,23.30
2018-12-09T23:45:33.900Z,23.30
2018-12-09T23:48:01.340Z,23.30
2018-12-09T23:50:28.793Z,23.30
2018-12-09T23:52:56.273Z,23.30
2018-12-09T23:55:23.725Z,23.30
2018-12-09T23:57:51.180Z,23.30
